createdAt,value
2019-04-14T00:02:59.793Z,99.99
2019-04-14T00:07:56.345Z,99.99
2019-04-14T00:12:51.568Z,99.99
2019-04-14T00:17:47.900Z,99.99
2019-04-14T00:22:44.554Z,99.99
2019-04-14T00:27:40.826Z,99.99
2019-04-14T00:32:37.847Z,99.99
2019-04-14T00:37:33.868Z,99.99
2019-04-14T00:42:29.857Z,99.99
2019-04-14T00:47:25.219Z,99.99
2019-04-14T00:52:21.212Z,99.99
2019-04-14T00:57:18.095Z,99.99
2019-04-14T01:02:13.181Z,99.99
2019-04-14T01:07:08.818Z,99.99
2019-04-14T01:12:04.446Z,99.99
2019-04-14T01:17:00.616Z,99.99
2019-04-14T01:21:57.007Z,99.99
2019-04-14T01:26:52.928Z,99.99
2019-04-14T01:31:49.358Z,99.99
2019-04-14T01:36:45.745Z,99.99
2019-04-14T01:41:41.130Z,99.99
2019-04-14T01:46:37.375Z,99.99
2019-04-14T01:51:33.152Z,99.99
2019-04-14T01:56:29.441Z,99.99
2019-04-14T02:01:25.816Z,99.99
2019-04-14T02:06:22.329Z,99.99
2019-04-14T02:11:18.348Z,99.99
2019-04-14T02:16:24.024Z,99.99
2019-04-14T02:21:12.891Z,99.99
2019-04-14T02:26:09.177Z,99.99
2019-04-14T02:31:17.205Z,99.99
2019-04-14T02:36:36.271Z,99.99
2019-04-14T02:41:37.972Z,99.99
2019-04-14T02:46:31.422Z,99.99
2019-04-14T02:51:29.577Z,99.99
2019-04-14T02:56:27.997Z,99.99
2019-04-14T03:01:40.620Z,99.99
2019-04-14T03:06:18.151Z,99.99
2019-04-14T03:11:24.579Z,99.99
2019-04-14T03:16:23.617Z,99.99
2019-04-14T03:21:34.576Z,99.99
2019-04-14T03:26:22.963Z,99.99
2019-04-14T03:31:37.623Z,99.99
2019-04-14T03:46:17.755Z,99.99
2019-04-14T03:51:16.789Z,99.99
2019-04-14T03:55:54.383Z,99.99
2019-04-14T04:00:49.165Z,99.99
2019-04-14T04:05:44.198Z,99.99
2019-04-14T04:10:40.037Z,99.99
2019-04-14T04:15:36.497Z,99.99
2019-04-14T04:20:39.158Z,99.99
2019-04-14T04:25:34.022Z,99.99
2019-04-14T04:30:30.163Z,99.99
2019-04-14T04:35:26.015Z,99.99
2019-04-14T04:40:22.306Z,99.99
2019-04-14T04:45:17.676Z,99.99
2019-04-14T04:50:13.486Z,99.99
2019-04-14T04:55:09.788Z,99.99
2019-04-14T05:00:07.243Z,99.99
2019-04-14T05:05:03.516Z,99.99
2019-04-14T05:10:00.174Z,99.99
2019-04-14T05:14:56.662Z,99.99
2019-04-14T05:19:51.949Z,99.99
2019-04-14T05:24:48.603Z,99.99
2019-04-14T05:29:44.991Z,99.99
2019-04-14T05:34:41.208Z,99.99
2019-04-14T05:39:37.478Z,99.99
2019-04-14T05:44:34.143Z,99.99
2019-04-14T05:49:37.858Z,99.99
2019-04-14T05:54:29.643Z,99.99
2019-04-14T05:59:25.011Z,99.99
2019-04-14T06:04:22.175Z,99.99
2019-04-14T06:09:17.698Z,99.99
2019-04-14T06:14:13.371Z,99.99
2019-04-14T06:19:09.078Z,99.99
2019-04-14T06:24:12.548Z,99.99
2019-04-14T06:29:06.993Z,99.99
2019-04-14T06:34:02.546Z,99.99
2019-04-14T06:38:58.725Z,99.99
2019-04-14T06:43:55.623Z,99.99
2019-04-14T06:48:51.086Z,99.99
2019-04-14T06:53:46.258Z,99.99
2019-04-14T06:58:42.037Z,99.99
2019-04-14T07:03:38.781Z,99.99
2019-04-14T07:08:35.671Z,99.99
2019-04-14T07:13:31.111Z,99.99
2019-04-14T07:18:26.651Z,99.99
2019-04-14T07:23:22.596Z,99.99
2019-04-14T07:28:18.470Z,99.99
2019-04-14T07:33:14.541Z,99.99
2019-04-14T07:38:10.279Z,99.99
2019-04-14T07:43:06.323Z,99.99
2019-04-14T07:48:02.955Z,99.99
2019-04-14T07:52:58.611Z,99.99
2019-04-14T07:57:54.337Z,99.99
2019-04-14T08:02:51.102Z,99.99
2019-04-14T08:07:47.406Z,99.99
2019-04-14T08:12:43.920Z,99.99
2019-04-14T08:17:40.124Z,99.99
2019-04-14T08:22:36.820Z,99.99
2019-04-14T08:32:33.034Z,99.99
2019-04-14T08:37:28.282Z,99.99
2019-04-14T08:42:24.750Z,99.73
2019-04-14T08:47:21.394Z,98.50
2019-04-14T08:52:17.333Z,94.32
2019-04-14T08:57:12.911Z,94.03
2019-04-14T09:02:09.067Z,91.66
2019-04-14T09:07:05.157Z,91.09
2019-04-14T09:12:00.992Z,90.14
2019-04-14T09:16:56.828Z,90.09
2019-04-14T09:21:52.986Z,89.61
2019-04-14T09:26:49.824Z,89.52
2019-04-14T09:31:45.755Z,88.67
2019-04-14T09:36:41.392Z,85.53
2019-04-14T09:41:37.190Z,86.14
2019-04-14T09:46:33.378Z,84.86
2019-04-14T09:51:28.760Z,85.38
2019-04-14T09:56:25.246Z,82.71
2019-04-14T10:01:21.224Z,81.86
2019-04-14T10:06:17.013Z,81.10
2019-04-14T10:11:13.773Z,79.52
2019-04-14T10:16:10.345Z,80.24
2019-04-14T10:21:16.921Z,78.91
2019-04-14T10:26:07.111Z,80.66
2019-04-14T10:31:03.961Z,78.71
2019-04-14T10:36:00.781Z,79.05
2019-04-14T10:40:56.899Z,77.28
2019-04-14T10:45:54.003Z,74.40
2019-04-14T10:50:50.352Z,77.47
2019-04-14T10:55:45.792Z,77.85
2019-04-14T11:00:42.304Z,74.50
2019-04-14T11:05:39.845Z,71.64
2019-04-14T11:10:36.517Z,73.13
2019-04-14T11:15:30.618Z,73.57
2019-04-14T11:20:24.289Z,77.53
2019-04-14T11:25:21.480Z,76.71
2019-04-14T11:30:18.469Z,73.95
2019-04-14T11:35:16.345Z,74.96
2019-04-14T11:40:11.739Z,77.43
2019-04-14T11:45:09.742Z,75.67
2019-04-14T11:50:05.962Z,76.04
2019-04-14T11:55:01.688Z,75.57
2019-04-14T11:59:59.594Z,73.61
2019-04-14T12:04:55.952Z,71.98
2019-04-14T12:09:51.419Z,73.00
2019-04-14T12:14:46.975Z,72.90
2019-04-14T12:19:41.930Z,75.76
2019-04-14T12:24:38.052Z,76.04
2019-04-14T12:29:34.919Z,76.14
2019-04-14T12:34:31.168Z,77.00
2019-04-14T12:39:28.070Z,75.85
2019-04-14T12:44:24.560Z,76.33
2019-04-14T12:49:21.600Z,75.09
2019-04-14T12:54:17.898Z,74.99
2019-04-14T12:59:14.472Z,75.28
2019-04-14T13:04:10.493Z,73.32
2019-04-14T13:09:06.435Z,72.46
2019-04-14T13:14:02.065Z,75.19
2019-04-14T13:18:57.861Z,76.33
2019-04-14T13:23:53.085Z,76.04
2019-04-14T13:28:49.109Z,77.15
2019-04-14T13:33:45.232Z,77.00
2019-04-14T13:38:41.069Z,77.00
2019-04-14T13:43:38.059Z,77.66
2019-04-14T13:48:33.719Z,78.99
2019-04-14T13:53:29.837Z,77.53
2019-04-14T13:58:25.158Z,79.05
2019-04-14T14:03:21.102Z,79.28
2019-04-14T14:08:17.134Z,77.56
2019-04-14T14:13:13.226Z,77.56
2019-04-14T14:18:10.206Z,76.04
2019-04-14T14:23:05.799Z,75.95
2019-04-14T14:28:01.401Z,76.23
2019-04-14T14:32:57.354Z,77.19
2019-04-14T14:37:54.116Z,76.96
2019-04-14T14:42:48.779Z,77.95
2019-04-14T14:47:44.716Z,77.53
2019-04-14T14:52:40.409Z,78.38
2019-04-14T14:57:35.802Z,78.67
2019-04-14T15:02:31.702Z,78.96
2019-04-14T15:07:27.610Z,78.57
2019-04-14T15:12:23.824Z,79.33
2019-04-14T15:17:19.670Z,80.10
2019-04-14T15:22:15.445Z,78.48
2019-04-14T15:27:11.368Z,79.05
2019-04-14T15:32:07.205Z,79.72
2019-04-14T15:37:03.074Z,80.10
2019-04-14T15:41:59.019Z,80.19
2019-04-14T15:46:55.887Z,79.43
2019-04-14T15:51:51.417Z,79.43
2019-04-14T15:56:47.060Z,80.29
2019-04-14T16:01:42.623Z,80.86
2019-04-14T16:06:39.085Z,81.81
2019-04-14T16:11:35.467Z,82.43
2019-04-14T16:16:30.950Z,84.05
2019-04-14T16:21:26.887Z,84.72
2019-04-14T16:26:22.842Z,85.28
2019-04-14T16:31:18.582Z,86.14
2019-04-14T16:36:14.330Z,86.05
2019-04-14T16:41:09.768Z,86.99
2019-04-14T16:46:06.520Z,88.23
2019-04-14T16:51:09.996Z,88.42
2019-04-14T16:56:04.708Z,89.00
2019-04-14T17:01:00.565Z,89.37
2019-04-14T17:05:56.240Z,90.14
2019-04-14T17:10:51.745Z,91.66
2019-04-14T17:15:54.902Z,92.46
2019-04-14T17:20:51.027Z,93.32
2019-04-14T17:25:48.833Z,94.46
2019-04-14T17:30:44.345Z,95.60
2019-04-14T17:35:40.242Z,96.08
2019-04-14T17:40:37.970Z,97.50
2019-04-14T17:45:33.657Z,98.83
2019-04-14T17:50:40.028Z,99.69
2019-04-14T17:55:28.309Z,99.99
2019-04-14T18:00:24.159Z,99.99
2019-04-14T18:05:20.648Z,99.99
2019-04-14T18:10:16.001Z,99.99
2019-04-14T18:15:12.292Z,99.99
2019-04-14T18:20:08.119Z,99.99
2019-04-14T18:25:03.877Z,99.99
2019-04-14T18:29:59.148Z,99.99
2019-04-14T18:34:55.215Z,99.99
2019-04-14T18:39:52.396Z,99.99
2019-04-14T18:44:51.138Z,99.99
2019-04-14T18:49:45.740Z,99.99
2019-04-14T18:54:41.058Z,99.99
2019-04-14T18:59:36.846Z,99.99
2019-04-14T19:04:33.893Z,99.99
2019-04-14T19:09:29.660Z,99.99
2019-04-14T19:14:25.345Z,99.99
2019-04-14T19:19:21.289Z,99.99
2019-04-14T19:24:16.885Z,99.99
2019-04-14T19:29:13.963Z,99.99
2019-04-14T19:34:10.363Z,99.99
2019-04-14T19:39:05.951Z,99.99
2019-04-14T19:44:01.730Z,99.99
2019-04-14T19:48:57.859Z,99.99
2019-04-14T19:53:53.490Z,99.99
2019-04-14T19:58:50.073Z,99.99
2019-04-14T20:03:46.679Z,99.99
2019-04-14T20:08:42.136Z,99.99
2019-04-14T20:13:42.296Z,99.99
2019-04-14T20:18:38.381Z,99.99
2019-04-14T20:23:33.634Z,99.99
2019-04-14T20:28:29.295Z,99.99
2019-04-14T20:33:27.238Z,99.99
2019-04-14T20:38:22.993Z,99.99
2019-04-14T20:43:19.552Z,99.99
2019-04-14T20:48:17.220Z,99.99
2019-04-14T20:53:12.290Z,99.99
2019-04-14T20:58:07.920Z,99.99
2019-04-14T21:03:03.745Z,99.99
2019-04-14T21:07:59.256Z,99.99
2019-04-14T21:12:57.408Z,99.99
2019-04-14T21:17:52.952Z,99.99
2019-04-14T21:22:49.026Z,99.99
2019-04-14T21:27:45.814Z,99.99
2019-04-14T21:32:42.867Z,99.99
2019-04-14T21:37:38.444Z,99.99
2019-04-14T21:42:34.178Z,99.99
2019-04-14T21:47:30.035Z,99.99
2019-04-14T21:52:25.813Z,99.99
2019-04-14T21:57:21.642Z,99.99
2019-04-14T22:02:17.265Z,99.99
2019-04-14T22:07:12.975Z,99.99
2019-04-14T22:12:08.658Z,99.99
2019-04-14T22:17:04.407Z,99.99
2019-04-14T22:22:00.040Z,99.99
2019-04-14T22:26:55.847Z,99.99
2019-04-14T22:31:51.439Z,99.99
2019-04-14T22:36:47.422Z,99.99
2019-04-14T22:41:44.215Z,99.99
2019-04-14T22:46:39.618Z,99.99
2019-04-14T22:51:36.184Z,99.99
2019-04-14T22:56:39.204Z,99.99
2019-04-14T23:01:32.112Z,99.99
2019-04-14T23:06:29.263Z,99.99
2019-04-14T23:11:24.673Z,99.99
2019-04-14T23:16:21.104Z,99.99
2019-04-14T23:21:17.589Z,99.99
2019-04-14T23:26:13.501Z,99.99
2019-04-14T23:31:09.976Z,99.99
2019-04-14T23:36:04.946Z,99.99
2019-04-14T23:41:01.878Z,99.99
2019-04-14T23:45:57.312Z,99.99
2019-04-14T23:50:53.312Z,99.99
2019-04-14T23:55:50.381Z,99.99
